LGA weather

La Guardia Airport
New York, New York, United States

Public forecast

Using degrees Fahrenheit for public forecast. Weather courtesy of forecast.io.

Current aviation weather report (METAR) for La Guardia Airport

Retrieved 2020/04/04 22:51 UTC (1 hour ago):

KLGA 042251Z 15010KT 10SM BKN065 11/04 A2999 RMK AO2 SLP155 T01110044

Aviation forecast (TAF) for La Guardia Airport

Retrieved 2020/04/04 18:36 UTC (5 hours ago):

TAF KLGA 041732Z 0418/0524 09005KT P6SM BKN035 FM042200 17005KT P6SM BKN035 FM050300 19004KT P6SM BKN025 FM051400 05005KT P6SM SCT030 BKN060 FM052100 17007KT P6SM SCT040 BKN070